createdAt,value
2019-04-28T19:34:37.218Z,1008.50
2019-04-28T19:40:37.062Z,1008.52
2019-04-28T19:46:38.169Z,1008.72
2019-04-28T19:52:39.863Z,1008.68
2019-04-28T19:58:37.217Z,1008.79
2019-04-28T20:04:38.718Z,1008.92
2019-04-28T20:10:37.028Z,1008.91
2019-04-28T20:16:37.183Z,1008.91
2019-04-28T20:22:37.095Z,1008.90
2019-04-28T20:28:37.090Z,1009.00
2019-04-28T20:34:37.020Z,1008.99
2019-04-28T20:40:37.004Z,1008.93
2019-04-28T20:46:37.259Z,1009.08
2019-04-28T20:52:37.390Z,1009.13
2019-04-28T20:58:37.081Z,1009.18
2019-04-28T21:04:37.136Z,1009.18
2019-04-28T21:10:38.387Z,1009.21
2019-04-28T21:16:40.527Z,1009.19
2019-04-28T21:22:37.009Z,1009.19
2019-04-28T21:28:37.028Z,1009.23
2019-04-28T21:34:37.121Z,1009.26
2019-04-28T21:40:37.040Z,1009.33
2019-04-28T21:50:18.235Z,1009.39
2019-04-28T21:56:18.323Z,1009.31
2019-04-28T22:02:18.288Z,1009.45
2019-04-28T22:08:18.245Z,1009.43
2019-04-28T22:14:18.354Z,1009.49
2019-04-28T22:20:20.435Z,1009.47
2019-04-28T22:26:18.523Z,1009.50
2019-04-28T22:32:18.296Z,1009.57
2019-04-28T22:38:19.339Z,1009.52
2019-04-28T22:44:18.341Z,1009.63
2019-04-28T22:50:18.310Z,1009.65
2019-04-28T22:56:18.243Z,1009.62
2019-04-28T23:02:18.290Z,1009.64
2019-04-28T23:08:18.341Z,1009.66
2019-04-28T23:14:18.295Z,1009.73
2019-04-28T23:20:18.278Z,1009.74
2019-04-28T23:26:18.322Z,1009.79
2019-04-28T23:32:18.409Z,1009.90
2019-04-28T23:38:18.296Z,1009.92
2019-04-28T23:44:18.282Z,1009.83
2019-04-28T23:50:18.304Z,1009.80
2019-04-28T23:56:19.625Z,1009.71
